createdAt,value
2022-09-27T00:00:26.380Z,990.18
2022-09-27T00:01:27.126Z,990.12
2022-09-27T00:02:26.341Z,990.10
2022-09-27T00:03:26.323Z,990.11
2022-09-27T00:04:26.332Z,990.11
2022-09-27T00:05:26.425Z,990.11
2022-09-27T00:06:26.919Z,990.14
2022-09-27T00:07:26.935Z,990.14
2022-09-27T00:08:27.193Z,990.15
2022-09-27T00:09:26.895Z,990.13
2022-09-27T00:10:26.912Z,990.13
2022-09-27T00:11:26.220Z,990.14
2022-09-27T00:12:26.968Z,990.15
2022-09-27T00:13:26.851Z,990.14
2022-09-27T00:14:26.190Z,990.18
2022-09-27T00:15:26.837Z,990.14
2022-09-27T00:16:26.895Z,990.17
2022-09-27T00:17:26.823Z,990.16
2022-09-27T00:18:26.793Z,990.16
2022-09-27T00:19:26.794Z,990.16
2022-09-27T00:20:26.785Z,990.17
2022-09-27T00:21:26.117Z,990.24
2022-09-27T00:22:26.164Z,990.20
2022-09-27T00:23:27.016Z,990.21
2022-09-27T00:24:26.084Z,990.21
2022-09-27T00:25:26.106Z,990.21
2022-09-27T00:26:26.707Z,990.24
2022-09-27T00:27:26.045Z,990.21
2022-09-27T00:28:26.005Z,990.25
2022-09-27T00:29:25.995Z,990.23
2022-09-27T00:30:26.393Z,990.24
2022-09-27T00:31:26.109Z,990.28
2022-09-27T00:32:26.409Z,990.28
2022-09-27T00:33:26.649Z,990.22
2022-09-27T00:34:25.947Z,990.25
2022-09-27T00:35:26.612Z,990.26
2022-09-27T00:36:26.046Z,990.24
2022-09-27T00:37:26.101Z,990.24
2022-09-27T00:38:25.918Z,990.24
2022-09-27T00:39:27.347Z,990.27
2022-09-27T00:40:26.266Z,990.22
2022-09-27T00:41:25.913Z,990.23
2022-09-27T00:42:26.518Z,990.26
2022-09-27T00:43:25.898Z,990.25
2022-09-27T00:44:25.890Z,990.28
2022-09-27T00:45:26.760Z,990.29
2022-09-27T00:46:25.872Z,990.28
2022-09-27T00:47:25.861Z,990.30
2022-09-27T00:48:26.492Z,990.27
2022-09-27T00:49:25.796Z,990.24
2022-09-27T00:50:25.810Z,990.26
2022-09-27T00:51:26.431Z,990.25
2022-09-27T00:52:26.438Z,990.26
2022-09-27T00:53:27.185Z,990.27
2022-09-27T00:54:25.789Z,990.29
2022-09-27T00:55:26.414Z,990.30
2022-09-27T00:56:25.812Z,990.30
2022-09-27T00:57:25.692Z,990.30
2022-09-27T00:58:26.365Z,990.30
2022-09-27T00:59:25.844Z,990.31
2022-09-27T01:00:26.362Z,990.32
2022-09-27T01:01:25.808Z,990.33
2022-09-27T01:02:26.427Z,990.27
2022-09-27T01:03:26.314Z,990.33
2022-09-27T01:04:25.696Z,990.31
2022-09-27T01:05:26.292Z,990.33
2022-09-27T01:06:25.696Z,990.32
2022-09-27T01:07:25.586Z,990.33
2022-09-27T01:08:25.614Z,990.35
2022-09-27T01:09:26.255Z,990.31
2022-09-27T01:10:26.234Z,990.34
2022-09-27T01:11:26.226Z,990.28
2022-09-27T01:12:25.602Z,990.36
2022-09-27T01:13:26.275Z,990.38
2022-09-27T01:14:25.826Z,990.36
2022-09-27T01:15:26.263Z,990.36
2022-09-27T01:16:25.511Z,990.39
2022-09-27T01:17:26.168Z,990.39
2022-09-27T01:18:25.577Z,990.40
2022-09-27T01:19:25.627Z,990.42
2022-09-27T01:20:25.570Z,990.43
2022-09-27T01:21:26.117Z,990.42
2022-09-27T01:22:25.495Z,990.48
2022-09-27T01:23:26.110Z,990.42
2022-09-27T01:24:25.458Z,990.45
2022-09-27T01:25:25.509Z,990.50
2022-09-27T01:26:26.063Z,990.45
2022-09-27T01:27:26.050Z,990.48
2022-09-27T01:28:25.360Z,990.45
2022-09-27T01:29:26.029Z,990.47
2022-09-27T01:30:25.402Z,990.46
2022-09-27T01:31:26.082Z,990.46
2022-09-27T01:32:25.533Z,990.49
2022-09-27T01:33:25.293Z,990.47
2022-09-27T01:34:25.970Z,990.46
2022-09-27T01:35:25.980Z,990.45
2022-09-27T01:36:26.031Z,990.47
2022-09-27T01:37:25.973Z,990.43
2022-09-27T01:38:25.934Z,990.42
2022-09-27T01:39:25.934Z,990.47
2022-09-27T01:40:26.265Z,990.48
2022-09-27T01:41:25.294Z,990.53
2022-09-27T01:42:25.286Z,990.51
2022-09-27T01:43:25.253Z,990.52
2022-09-27T01:44:25.591Z,990.54
2022-09-27T01:45:25.253Z,990.52
2022-09-27T01:46:25.198Z,990.55
2022-09-27T01:47:25.194Z,990.56
2022-09-27T01:48:25.254Z,990.62
2022-09-27T01:49:25.159Z,990.63
2022-09-27T01:50:25.164Z,990.60
2022-09-27T01:51:25.149Z,990.58
2022-09-27T01:52:25.784Z,990.57
2022-09-27T01:53:25.767Z,990.59
2022-09-27T01:54:25.427Z,990.57
2022-09-27T01:55:26.522Z,990.56
2022-09-27T01:56:25.799Z,990.53
2022-09-27T01:57:25.085Z,990.55
2022-09-27T01:58:25.134Z,990.50
2022-09-27T01:59:25.575Z,990.57
2022-09-27T02:00:25.115Z,990.48
2022-09-27T02:01:25.745Z,990.49
2022-09-27T02:02:25.038Z,990.47
2022-09-27T02:03:26.441Z,990.50
2022-09-27T02:04:25.918Z,990.49
2022-09-27T02:05:25.637Z,990.51
2022-09-27T02:06:26.004Z,990.51
2022-09-27T02:07:25.638Z,990.52
2022-09-27T02:08:24.988Z,990.56
2022-09-27T02:09:25.889Z,990.55
2022-09-27T02:10:25.601Z,990.56
2022-09-27T02:11:25.572Z,990.57
2022-09-27T02:12:25.569Z,990.54
2022-09-27T02:13:25.549Z,990.54
2022-09-27T02:14:24.868Z,990.57
2022-09-27T02:15:25.542Z,990.57
2022-09-27T02:16:25.631Z,990.58
2022-09-27T02:17:25.510Z,990.58
2022-09-27T02:18:25.579Z,990.60
2022-09-27T02:19:24.801Z,990.64
2022-09-27T02:20:25.482Z,990.62
2022-09-27T02:21:24.785Z,990.55
2022-09-27T02:22:24.772Z,990.56
2022-09-27T02:23:25.452Z,990.54
2022-09-27T02:24:25.512Z,990.58
2022-09-27T02:25:24.750Z,990.58
2022-09-27T02:26:24.744Z,990.57
2022-09-27T02:27:25.407Z,990.60
2022-09-27T02:28:25.393Z,990.59
2022-09-27T02:29:26.137Z,990.59
2022-09-27T02:30:25.397Z,990.57
2022-09-27T02:31:24.702Z,990.62
2022-09-27T02:32:25.354Z,990.66
2022-09-27T02:33:24.678Z,990.64
2022-09-27T02:34:25.334Z,990.63
2022-09-27T02:35:25.326Z,990.63
2022-09-27T02:36:25.295Z,990.63
2022-09-27T02:37:24.623Z,990.62
2022-09-27T02:38:24.614Z,990.65
2022-09-27T02:39:24.595Z,990.68
2022-09-27T02:40:25.306Z,990.65
2022-09-27T02:41:25.256Z,990.65
2022-09-27T02:42:25.236Z,990.65
2022-09-27T02:43:24.556Z,990.66
2022-09-27T02:44:25.225Z,990.63
2022-09-27T02:45:25.225Z,990.65
2022-09-27T02:46:24.565Z,990.69
2022-09-27T02:47:25.199Z,990.69
2022-09-27T02:48:24.537Z,990.70
2022-09-27T02:49:25.950Z,990.65
2022-09-27T02:50:25.166Z,990.65
2022-09-27T02:51:25.171Z,990.69
2022-09-27T02:52:25.138Z,990.64
2022-09-27T02:53:25.131Z,990.63
2022-09-27T02:54:25.112Z,990.62
2022-09-27T02:55:25.100Z,990.64
2022-09-27T02:56:25.095Z,990.60
2022-09-27T02:57:25.339Z,990.59
2022-09-27T02:58:24.403Z,990.61
2022-09-27T02:59:25.069Z,990.58
2022-09-27T03:00:25.039Z,990.61
2022-09-27T03:01:25.100Z,990.61
2022-09-27T03:02:24.399Z,990.58
2022-09-27T03:03:25.022Z,990.61
2022-09-27T03:04:24.345Z,990.60
2022-09-27T03:05:25.035Z,990.62
2022-09-27T03:06:24.336Z,990.67
2022-09-27T03:07:24.299Z,990.61
2022-09-27T03:08:24.971Z,990.57
2022-09-27T03:09:24.960Z,990.62
2022-09-27T03:10:24.952Z,990.58
2022-09-27T03:11:24.946Z,990.59
2022-09-27T03:12:25.013Z,990.60
2022-09-27T03:13:24.941Z,990.61
2022-09-27T03:14:24.322Z,990.59
2022-09-27T03:15:24.895Z,990.61
2022-09-27T03:16:24.898Z,990.58
2022-09-27T03:17:24.193Z,990.62
2022-09-27T03:18:25.153Z,990.57
2022-09-27T03:19:24.854Z,990.56
2022-09-27T03:20:25.104Z,990.62
2022-09-27T03:21:24.157Z,990.63
2022-09-27T03:22:24.143Z,990.60
2022-09-27T03:23:24.126Z,990.62
2022-09-27T03:24:24.805Z,990.61
2022-09-27T03:25:24.137Z,990.62
2022-09-27T03:26:24.778Z,990.62
2022-09-27T03:27:24.771Z,990.62
2022-09-27T03:28:24.074Z,990.61
2022-09-27T03:29:24.746Z,990.64
2022-09-27T03:30:24.739Z,990.64
2022-09-27T03:31:24.193Z,990.64
2022-09-27T03:32:24.079Z,990.67
2022-09-27T03:33:24.717Z,990.68
2022-09-27T03:34:24.722Z,990.70
2022-09-27T03:35:24.008Z,990.69
2022-09-27T03:36:24.107Z,990.65
2022-09-27T03:37:24.024Z,990.68
2022-09-27T03:38:23.961Z,990.70
2022-09-27T03:39:23.974Z,990.67
2022-09-27T03:40:24.020Z,990.72
2022-09-27T03:41:23.979Z,990.74
2022-09-27T03:42:23.949Z,990.71
2022-09-27T03:43:24.600Z,990.75
2022-09-27T03:44:24.587Z,990.70
2022-09-27T03:45:25.343Z,990.71
2022-09-27T03:46:25.406Z,990.74
2022-09-27T03:47:24.549Z,990.71
2022-09-27T03:48:27.954Z,990.78
2022-09-27T03:49:23.873Z,990.75
2022-09-27T03:50:24.524Z,990.73
2022-09-27T03:51:24.511Z,990.77
2022-09-27T03:52:23.811Z,990.72
2022-09-27T03:53:24.498Z,990.74
2022-09-27T03:54:23.842Z,990.73
2022-09-27T03:55:24.482Z,990.71
2022-09-27T03:56:24.501Z,990.70
2022-09-27T03:57:24.461Z,990.69
2022-09-27T03:58:24.855Z,990.67
2022-09-27T03:59:25.663Z,990.75
2022-09-27T04:00:24.551Z,990.73
2022-09-27T04:01:29.726Z,990.75
2022-09-27T04:02:23.756Z,990.78
2022-09-27T04:03:23.723Z,990.81
2022-09-27T04:04:23.712Z,990.73
2022-09-27T04:05:24.362Z,990.73
2022-09-27T04:06:23.753Z,990.75
2022-09-27T04:07:24.655Z,990.71
2022-09-27T04:08:23.666Z,990.76
2022-09-27T04:09:24.334Z,990.75
2022-09-27T04:10:23.624Z,990.77
2022-09-27T04:11:24.557Z,990.79
2022-09-27T04:12:24.275Z,990.76
2022-09-27T04:13:23.598Z,990.79
2022-09-27T04:14:24.555Z,990.78
2022-09-27T04:15:24.258Z,990.77
2022-09-27T04:16:23.595Z,990.78
2022-09-27T04:17:24.236Z,990.81
2022-09-27T04:18:24.210Z,990.79
2022-09-27T04:19:24.211Z,990.76
2022-09-27T04:20:24.197Z,990.75
2022-09-27T04:21:24.187Z,990.83
2022-09-27T04:22:24.178Z,990.84
2022-09-27T04:23:29.005Z,990.85
2022-09-27T04:24:25.447Z,990.80
2022-09-27T04:25:23.517Z,990.80
2022-09-27T04:26:24.142Z,990.81
2022-09-27T04:27:23.450Z,990.85
2022-09-27T04:28:24.111Z,990.85
2022-09-27T04:29:23.442Z,990.88
2022-09-27T04:30:23.470Z,990.85
2022-09-27T04:31:24.183Z,990.91
2022-09-27T04:32:23.380Z,990.94
2022-09-27T04:33:23.372Z,990.97
2022-09-27T04:34:24.041Z,990.99
2022-09-27T04:35:24.043Z,990.95
2022-09-27T04:36:24.022Z,991.01
2022-09-27T04:37:24.301Z,991.01
2022-09-27T04:38:24.035Z,991.05
2022-09-27T04:39:23.321Z,991.03
2022-09-27T04:40:24.789Z,991.09
2022-09-27T04:41:23.971Z,991.07
2022-09-27T04:42:24.110Z,991.09
2022-09-27T04:43:23.272Z,991.03
2022-09-27T04:44:23.262Z,991.08
2022-09-27T04:45:23.274Z,991.11
2022-09-27T04:46:23.978Z,991.05
2022-09-27T04:47:23.915Z,991.14
2022-09-27T04:48:23.244Z,991.13
2022-09-27T04:49:23.800Z,991.14
2022-09-27T04:50:23.213Z,991.16
2022-09-27T04:51:23.194Z,991.12
2022-09-27T04:52:23.854Z,991.15
2022-09-27T04:53:23.845Z,991.15
2022-09-27T04:54:23.826Z,991.13
2022-09-27T04:55:23.145Z,991.13
2022-09-27T04:56:24.065Z,991.11
2022-09-27T04:57:23.796Z,991.12
2022-09-27T04:58:23.786Z,991.15
2022-09-27T04:59:24.545Z,991.16
2022-09-27T05:00:23.859Z,991.16
2022-09-27T05:01:23.835Z,991.15
2022-09-27T05:02:23.800Z,991.16
2022-09-27T05:03:23.736Z,991.18
2022-09-27T05:04:23.728Z,991.17
2022-09-27T05:05:23.716Z,991.20
2022-09-27T05:06:23.706Z,991.24
2022-09-27T05:07:23.997Z,991.22
2022-09-27T05:08:23.027Z,991.23
2022-09-27T05:09:23.023Z,991.27
2022-09-27T05:10:24.927Z,991.32
2022-09-27T05:11:23.666Z,991.29
2022-09-27T05:12:23.951Z,991.33
2022-09-27T05:13:22.955Z,991.31
2022-09-27T05:14:23.914Z,991.28
2022-09-27T05:15:23.627Z,991.29
2022-09-27T05:16:23.873Z,991.26
2022-09-27T05:17:23.881Z,991.27
2022-09-27T05:18:23.571Z,991.33
2022-09-27T05:19:24.891Z,991.35
2022-09-27T05:20:22.900Z,991.34
2022-09-27T05:21:22.880Z,991.33
2022-09-27T05:22:24.810Z,991.36
2022-09-27T05:23:23.539Z,991.33
2022-09-27T05:24:23.510Z,991.36
2022-09-27T05:25:22.887Z,991.35
2022-09-27T05:26:23.492Z,991.33
2022-09-27T05:27:23.481Z,991.34
2022-09-27T05:28:24.223Z,991.40
2022-09-27T05:29:23.463Z,991.35
2022-09-27T05:30:23.534Z,991.34
2022-09-27T05:31:23.738Z,991.35
2022-09-27T05:32:23.430Z,991.33
2022-09-27T05:33:22.743Z,991.40
2022-09-27T05:34:22.731Z,991.41
2022-09-27T05:35:23.404Z,991.39
2022-09-27T05:36:23.671Z,991.41
2022-09-27T05:37:22.703Z,991.44
2022-09-27T05:38:23.370Z,991.42
2022-09-27T05:39:22.684Z,991.44
2022-09-27T05:40:40.138Z,991.47
2022-09-27T05:41:24.708Z,991.42
2022-09-27T05:42:22.659Z,991.44
2022-09-27T05:43:22.649Z,991.46
2022-09-27T05:44:22.645Z,991.41
2022-09-27T05:45:23.304Z,991.39
2022-09-27T05:46:22.696Z,991.40
2022-09-27T05:47:23.547Z,991.42
2022-09-27T05:48:23.267Z,991.40
2022-09-27T05:49:23.249Z,991.41
2022-09-27T05:50:23.236Z,991.42
2022-09-27T05:51:23.225Z,991.45
2022-09-27T05:52:23.404Z,991.49
2022-09-27T05:53:22.549Z,991.49
2022-09-27T05:54:23.196Z,991.51
2022-09-27T05:55:22.534Z,991.56
2022-09-27T05:56:23.179Z,991.55
2022-09-27T05:57:23.167Z,991.53
2022-09-27T05:58:22.495Z,991.56
2022-09-27T05:59:23.154Z,991.56
2022-09-27T06:00:23.129Z,991.60
2022-09-27T06:01:22.505Z,991.58
2022-09-27T06:02:23.170Z,991.65
2022-09-27T06:03:23.100Z,991.66
2022-09-27T06:04:23.091Z,991.67
2022-09-27T06:05:23.159Z,991.65
2022-09-27T06:06:22.409Z,991.71
2022-09-27T06:07:22.402Z,991.65
2022-09-27T06:08:22.433Z,991.65
2022-09-27T06:09:22.392Z,991.66
2022-09-27T06:10:23.077Z,991.68
2022-09-27T06:11:22.369Z,991.66
2022-09-27T06:12:22.340Z,991.63
2022-09-27T06:13:22.994Z,991.64
2022-09-27T06:14:22.980Z,991.61
2022-09-27T06:15:22.318Z,991.62
2022-09-27T06:16:23.014Z,991.61
2022-09-27T06:17:22.949Z,991.64
2022-09-27T06:18:22.260Z,991.67
2022-09-27T06:19:23.691Z,991.60
2022-09-27T06:20:22.236Z,991.57
2022-09-27T06:21:22.910Z,991.57
2022-09-27T06:22:23.208Z,991.58
2022-09-27T06:23:22.233Z,991.60
2022-09-27T06:24:22.212Z,991.59
2022-09-27T06:25:22.184Z,991.67
2022-09-27T06:26:22.162Z,991.68
2022-09-27T06:27:22.165Z,991.67
2022-09-27T06:28:22.853Z,991.70
2022-09-27T06:29:22.823Z,991.72
2022-09-27T06:30:22.167Z,991.77
2022-09-27T06:31:22.199Z,991.76
2022-09-27T06:32:22.118Z,991.80
2022-09-27T06:33:22.774Z,991.76
2022-09-27T06:34:22.083Z,991.84
2022-09-27T06:35:22.493Z,991.86
2022-09-27T06:36:23.524Z,991.82
2022-09-27T06:37:22.047Z,991.90
2022-09-27T06:38:22.055Z,992.03
2022-09-27T06:39:22.035Z,991.98
2022-09-27T06:40:23.505Z,991.98
2022-09-27T06:41:22.136Z,991.93
2022-09-27T06:42:22.686Z,991.95
2022-09-27T06:43:21.987Z,991.97
2022-09-27T06:44:22.658Z,992.00
2022-09-27T06:45:22.647Z,992.02
2022-09-27T06:46:22.684Z,992.06
2022-09-27T06:47:22.627Z,992.06
2022-09-27T06:48:22.608Z,992.09
2022-09-27T06:49:21.927Z,992.11
2022-09-27T06:50:21.929Z,992.06
2022-09-27T06:51:21.898Z,992.12
2022-09-27T06:52:22.570Z,992.12
2022-09-27T06:53:23.358Z,992.15
2022-09-27T06:54:21.870Z,992.19
2022-09-27T06:55:21.880Z,992.14
2022-09-27T06:56:21.844Z,992.14
2022-09-27T06:57:22.781Z,992.18
2022-09-27T06:58:22.511Z,992.25
2022-09-27T06:59:21.930Z,992.28
2022-09-27T07:00:21.801Z,992.27
2022-09-27T07:01:21.839Z,992.29
2022-09-27T07:02:22.577Z,992.33
2022-09-27T07:03:22.479Z,992.35
2022-09-27T07:04:22.442Z,992.27
2022-09-27T07:05:22.731Z,992.26
2022-09-27T07:06:21.751Z,992.22
2022-09-27T07:07:23.210Z,992.25
2022-09-27T07:08:22.394Z,992.25
2022-09-27T07:09:21.702Z,992.28
2022-09-27T07:10:22.376Z,992.30
2022-09-27T07:11:22.737Z,992.37
2022-09-27T07:12:22.367Z,992.44
2022-09-27T07:13:22.351Z,992.41
2022-09-27T07:14:22.332Z,992.49
2022-09-27T07:15:22.324Z,992.44
2022-09-27T07:16:21.691Z,992.41
2022-09-27T07:17:21.654Z,992.43
2022-09-27T07:18:22.294Z,992.49
2022-09-27T07:19:21.608Z,992.47
2022-09-27T07:20:22.298Z,992.48
2022-09-27T07:21:21.618Z,992.49
2022-09-27T07:22:22.245Z,992.50
2022-09-27T07:23:22.223Z,992.49
2022-09-27T07:24:21.534Z,992.49
2022-09-27T07:25:22.217Z,992.47
2022-09-27T07:26:21.523Z,992.53
2022-09-27T07:27:21.538Z,992.51
2022-09-27T07:28:22.549Z,992.52
2022-09-27T07:29:22.163Z,992.69
2022-09-27T07:30:22.301Z,992.69
2022-09-27T07:31:22.153Z,992.62
2022-09-27T07:32:21.458Z,992.58
2022-09-27T07:33:22.142Z,992.56
2022-09-27T07:34:21.436Z,992.62
2022-09-27T07:35:22.099Z,992.49
2022-09-27T07:36:21.411Z,992.55
2022-09-27T07:37:22.089Z,992.53
2022-09-27T07:38:21.412Z,992.52
2022-09-27T07:39:22.069Z,992.54
2022-09-27T07:40:22.839Z,992.60
2022-09-27T07:41:22.031Z,992.71
2022-09-27T07:42:21.345Z,992.67
2022-09-27T07:43:22.021Z,992.65
2022-09-27T07:44:22.005Z,992.68
2022-09-27T07:45:21.992Z,992.68
2022-09-27T07:46:22.303Z,992.71
2022-09-27T07:47:21.985Z,992.71
2022-09-27T07:48:21.281Z,992.76
2022-09-27T07:49:21.273Z,992.91
2022-09-27T07:50:21.944Z,992.91
2022-09-27T07:51:21.289Z,993.04
2022-09-27T07:52:21.403Z,992.87
2022-09-27T07:53:22.225Z,992.83
2022-09-27T07:54:21.207Z,992.80
2022-09-27T07:55:21.214Z,992.77
2022-09-27T07:56:21.274Z,992.74
2022-09-27T07:57:21.194Z,992.76
2022-09-27T07:58:21.860Z,993.23
2022-09-27T07:59:21.215Z,992.88
2022-09-27T08:00:22.096Z,992.83
2022-09-27T08:01:21.869Z,992.85
2022-09-27T08:02:21.862Z,992.85
2022-09-27T08:03:21.815Z,992.82
2022-09-27T08:04:21.788Z,992.80
2022-09-27T08:05:21.274Z,992.80
2022-09-27T08:06:21.079Z,992.80
2022-09-27T08:07:21.155Z,992.85
2022-09-27T08:08:21.067Z,992.83
2022-09-27T08:09:21.068Z,992.87
2022-09-27T08:10:21.789Z,992.85
2022-09-27T08:11:21.804Z,993.00
2022-09-27T08:12:21.020Z,992.97
2022-09-27T08:13:21.069Z,992.94
2022-09-27T08:14:21.020Z,992.91
2022-09-27T08:15:21.670Z,993.56
2022-09-27T08:16:21.048Z,993.50
2022-09-27T08:17:21.682Z,993.25
2022-09-27T08:18:20.971Z,993.23
2022-09-27T08:19:21.651Z,993.04
2022-09-27T08:20:20.992Z,993.03
2022-09-27T08:21:21.880Z,992.97
2022-09-27T08:22:20.907Z,993.05
2022-09-27T08:23:20.975Z,992.97
2022-09-27T08:24:21.572Z,993.04
2022-09-27T08:25:21.573Z,993.00
2022-09-27T08:26:21.555Z,993.05
2022-09-27T08:27:21.547Z,993.05
2022-09-27T08:28:20.847Z,993.09
2022-09-27T08:29:20.883Z,993.04
2022-09-27T08:30:21.509Z,993.07
2022-09-27T08:31:21.560Z,993.05
2022-09-27T08:32:23.455Z,993.07
2022-09-27T08:33:20.826Z,993.05
2022-09-27T08:34:21.485Z,993.03
2022-09-27T08:35:22.653Z,993.03
2022-09-27T08:36:21.445Z,993.09
2022-09-27T08:37:21.688Z,993.10
2022-09-27T08:38:21.435Z,993.07
2022-09-27T08:39:21.422Z,993.14
2022-09-27T08:40:20.749Z,993.12
2022-09-27T08:41:21.387Z,993.12
2022-09-27T08:42:21.648Z,993.20
2022-09-27T08:43:21.387Z,993.17
2022-09-27T08:44:20.698Z,993.17
2022-09-27T08:45:21.352Z,993.15
2022-09-27T08:46:21.340Z,993.38
2022-09-27T08:47:20.674Z,993.38
2022-09-27T08:48:20.668Z,993.43
2022-09-27T08:49:21.580Z,993.31
2022-09-27T08:50:21.300Z,993.37
2022-09-27T08:51:21.289Z,993.59
2022-09-27T08:52:21.297Z,993.33
2022-09-27T08:53:20.663Z,993.26
2022-09-27T08:54:21.250Z,993.19
2022-09-27T08:55:21.248Z,993.23
2022-09-27T08:56:20.565Z,993.24
2022-09-27T08:57:21.227Z,993.26
2022-09-27T08:58:21.204Z,993.22
2022-09-27T08:59:20.553Z,993.29
2022-09-27T09:00:20.550Z,993.27
2022-09-27T09:01:22.141Z,993.22
2022-09-27T09:02:21.224Z,993.32
2022-09-27T09:03:21.402Z,993.30
2022-09-27T09:04:20.464Z,993.21
2022-09-27T09:05:21.126Z,993.25
2022-09-27T09:06:20.437Z,993.16
2022-09-27T09:07:20.443Z,993.26
2022-09-27T09:08:20.417Z,993.22
2022-09-27T09:09:20.405Z,993.24
2022-09-27T09:10:21.310Z,993.21
2022-09-27T09:11:21.254Z,993.19
2022-09-27T09:12:21.063Z,993.15
2022-09-27T09:13:21.054Z,993.19
2022-09-27T09:14:21.043Z,993.18
2022-09-27T09:15:20.348Z,993.20
2022-09-27T09:16:20.365Z,993.17
2022-09-27T09:17:21.211Z,993.17
2022-09-27T09:18:21.004Z,993.20
2022-09-27T09:19:20.987Z,993.19
2022-09-27T09:20:20.287Z,993.18
2022-09-27T09:21:20.968Z,993.20
2022-09-27T09:22:20.277Z,993.18
2022-09-27T09:23:20.321Z,993.15
2022-09-27T09:24:21.173Z,993.11
2022-09-27T09:25:20.231Z,993.12
2022-09-27T09:26:21.001Z,993.17
2022-09-27T09:27:20.891Z,993.21
2022-09-27T09:28:20.240Z,993.20
2022-09-27T09:29:20.862Z,993.18
2022-09-27T09:30:20.184Z,993.21
2022-09-27T09:31:21.645Z,993.19
2022-09-27T09:32:20.862Z,993.19
2022-09-27T09:33:20.172Z,993.16
2022-09-27T09:34:20.821Z,993.19
2022-09-27T09:35:20.179Z,993.20
2022-09-27T09:36:20.165Z,993.23
2022-09-27T09:37:20.793Z,993.25
2022-09-27T09:38:20.105Z,993.15
2022-09-27T09:39:20.225Z,993.16
2022-09-27T09:40:20.162Z,993.11
2022-09-27T09:41:20.735Z,993.15
2022-09-27T09:42:20.743Z,993.16
2022-09-27T09:43:20.731Z,993.15
2022-09-27T09:44:20.707Z,993.16
2022-09-27T09:45:21.513Z,993.19
2022-09-27T09:46:20.696Z,993.17
2022-09-27T09:47:20.146Z,993.16
2022-09-27T09:48:20.015Z,993.16
2022-09-27T09:49:19.984Z,993.16
2022-09-27T09:50:20.677Z,993.19
2022-09-27T09:51:20.668Z,993.25
2022-09-27T09:52:19.977Z,993.19
2022-09-27T09:53:20.617Z,993.16
2022-09-27T09:54:20.612Z,993.16
2022-09-27T09:55:20.625Z,993.10
2022-09-27T09:56:20.840Z,993.11
2022-09-27T09:57:20.586Z,993.08
2022-09-27T09:58:20.561Z,993.12
2022-09-27T09:59:20.559Z,993.11
2022-09-27T10:00:19.850Z,993.07
2022-09-27T10:01:20.573Z,993.07
2022-09-27T10:02:20.564Z,993.09
2022-09-27T10:03:20.750Z,993.06
2022-09-27T10:04:20.513Z,993.08
2022-09-27T10:05:21.259Z,993.03
2022-09-27T10:06:19.791Z,993.14
2022-09-27T10:07:19.783Z,993.11
2022-09-27T10:08:19.792Z,993.09
2022-09-27T10:09:19.755Z,993.16
2022-09-27T10:10:21.672Z,993.11
2022-09-27T10:11:20.413Z,993.12
2022-09-27T10:12:19.742Z,993.12
2022-09-27T10:13:19.722Z,992.99
2022-09-27T10:14:20.401Z,993.02
2022-09-27T10:15:19.712Z,993.01
2022-09-27T10:16:19.703Z,993.06
2022-09-27T10:17:19.717Z,993.04
2022-09-27T10:18:19.667Z,993.06
2022-09-27T10:19:19.687Z,993.00
2022-09-27T10:20:20.452Z,992.98
2022-09-27T10:21:20.315Z,993.01
2022-09-27T10:22:20.312Z,993.06
2022-09-27T10:23:19.629Z,993.02
2022-09-27T10:24:20.571Z,992.99
2022-09-27T10:25:20.282Z,992.96
2022-09-27T10:26:19.630Z,992.98
2022-09-27T10:27:19.607Z,992.95
2022-09-27T10:28:19.566Z,992.95
2022-09-27T10:29:20.235Z,992.93
2022-09-27T10:30:19.629Z,992.92
2022-09-27T10:31:20.252Z,992.94
2022-09-27T10:32:20.197Z,992.94
2022-09-27T10:33:20.190Z,992.95
2022-09-27T10:34:19.502Z,992.94
2022-09-27T10:35:23.557Z,992.95
2022-09-27T10:36:20.389Z,992.92
2022-09-27T10:37:20.154Z,992.93
2022-09-27T10:38:19.490Z,992.95
2022-09-27T10:39:19.459Z,992.95
2022-09-27T10:40:20.284Z,992.92
2022-09-27T10:41:20.084Z,992.92
2022-09-27T10:42:19.420Z,992.86
2022-09-27T10:43:19.435Z,992.92
2022-09-27T10:44:20.070Z,992.90
2022-09-27T10:45:19.428Z,992.92
2022-09-27T10:46:20.052Z,992.92
2022-09-27T10:47:20.130Z,992.92
2022-09-27T10:48:19.364Z,992.93
2022-09-27T10:49:20.017Z,992.93
2022-09-27T10:50:38.706Z,992.94
2022-09-27T10:51:21.737Z,992.86
2022-09-27T10:52:19.334Z,992.92
2022-09-27T10:53:19.403Z,992.88
2022-09-27T10:54:19.989Z,992.90
2022-09-27T10:55:19.942Z,992.90
2022-09-27T10:56:19.349Z,992.87
2022-09-27T10:57:19.456Z,992.85
2022-09-27T10:58:19.431Z,992.88
2022-09-27T10:59:19.908Z,992.89
2022-09-27T11:00:19.895Z,992.87
2022-09-27T11:01:19.918Z,992.90
2022-09-27T11:02:19.867Z,992.87
2022-09-27T11:03:19.207Z,992.85
2022-09-27T11:04:20.139Z,992.82
2022-09-27T11:05:19.188Z,992.79
2022-09-27T11:06:19.848Z,992.81
2022-09-27T11:07:19.823Z,992.81
2022-09-27T11:08:19.178Z,992.80
2022-09-27T11:09:19.910Z,992.87
2022-09-27T11:10:19.801Z,992.82
2022-09-27T11:11:19.120Z,992.87
2022-09-27T11:12:19.775Z,992.82
2022-09-27T11:13:19.072Z,992.84
2022-09-27T11:14:19.068Z,992.82
2022-09-27T11:15:19.061Z,992.84
2022-09-27T11:16:19.744Z,992.82
2022-09-27T11:17:19.069Z,992.83
2022-09-27T11:18:19.690Z,992.84
2022-09-27T11:19:19.684Z,992.80
2022-09-27T11:20:19.671Z,992.84
2022-09-27T11:21:19.676Z,992.90
2022-09-27T11:22:18.991Z,992.86
2022-09-27T11:23:18.994Z,992.92
2022-09-27T11:24:18.974Z,992.91
2022-09-27T11:25:18.935Z,992.92
2022-09-27T11:26:21.365Z,992.95
2022-09-27T11:27:18.913Z,992.85
2022-09-27T11:28:19.617Z,992.89
2022-09-27T11:29:19.033Z,992.93
2022-09-27T11:30:19.594Z,993.04
2022-09-27T11:31:19.976Z,993.02
2022-09-27T11:32:18.854Z,993.03
2022-09-27T11:33:18.874Z,993.12
2022-09-27T11:34:18.896Z,993.08
2022-09-27T11:35:21.087Z,993.13
2022-09-27T11:36:18.833Z,993.12
2022-09-27T11:37:18.816Z,993.17
2022-09-27T11:38:40.805Z,993.17
2022-09-27T11:39:19.794Z,993.10
2022-09-27T11:40:19.525Z,993.11
2022-09-27T11:41:19.097Z,993.14
2022-09-27T11:42:19.435Z,993.14
2022-09-27T11:43:18.777Z,993.17
2022-09-27T11:44:18.737Z,993.13
2022-09-27T11:46:26.649Z,993.11
2022-09-27T11:47:19.802Z,993.13
2022-09-27T11:48:19.376Z,993.12
2022-09-27T11:49:18.669Z,993.11
2022-09-27T11:50:18.681Z,993.09
2022-09-27T11:51:19.330Z,993.12
2022-09-27T11:52:18.689Z,993.11
2022-09-27T11:53:19.313Z,993.11
2022-09-27T11:54:18.784Z,993.17
2022-09-27T11:55:19.301Z,993.10
2022-09-27T11:56:18.610Z,993.15
2022-09-27T11:57:19.542Z,993.11
2022-09-27T11:58:19.261Z,993.16
2022-09-27T11:59:24.407Z,993.13
2022-09-27T12:00:21.474Z,993.10
2022-09-27T12:01:19.231Z,993.16
2022-09-27T12:02:18.668Z,993.11
2022-09-27T12:03:19.203Z,993.13
2022-09-27T12:04:19.522Z,993.14
2022-09-27T12:05:18.503Z,993.05
2022-09-27T12:06:19.173Z,993.08
2022-09-27T12:07:19.433Z,993.04
2022-09-27T12:08:19.160Z,992.98
2022-09-27T12:09:18.469Z,993.04
2022-09-27T12:10:19.143Z,993.04
2022-09-27T12:11:19.122Z,993.08
2022-09-27T12:12:18.425Z,993.01
2022-09-27T12:13:19.095Z,993.00
2022-09-27T12:14:19.344Z,993.03
2022-09-27T12:15:19.085Z,993.00
2022-09-27T12:16:19.116Z,993.02
2022-09-27T12:17:19.057Z,992.95
2022-09-27T12:18:19.046Z,992.95
2022-09-27T12:19:18.352Z,992.97
2022-09-27T12:20:19.812Z,992.99
2022-09-27T12:21:19.006Z,992.99
2022-09-27T12:22:34.673Z,992.96
2022-09-27T12:23:19.997Z,993.00
2022-09-27T12:24:18.985Z,993.03
2022-09-27T12:25:21.006Z,992.99
2022-09-27T12:26:18.956Z,993.02
2022-09-27T12:27:18.949Z,992.95
2022-09-27T12:28:22.437Z,992.91
2022-09-27T12:29:18.360Z,992.85